x

Halibut Bank (46146) Wave Buoy

11:00 - Wed 24th May 2017 All times are PDT. -7 hours from GMT.

  • Sig Wave height 2.3ft
  • Peak Period 3s
  • Wind
    16mph, 22mph gusts
  • Sea Temp 50°f
  • Ar Temp 52°f
  • Sea Pressure 1015.4mb
  • Halibut Bank
  • Halibut Bank

More Historic Weather Station data

Upgrade to MSW Pro to gain access to the past 30 days of data for over 8000 Wavebouys and Weather Stations around the globe.

Join Pro

Comparision Forecast

View Surf forecast
   
Qua 05/24 11:00 2.5ft 3s 16 22 mph 1015.4mb 50f 52f
10:00 2.5ft 4s 20 25 mph 1015.3mb 49f 52f
9:00 3ft 4s 18 20 mph 1015.6mb 49f 51f
8:00 3.5ft 4s 25 29 mph 1015mb 49f 51f
7:00 3.5ft 4s 16 20 mph 1015.2mb 49f 50f
6:00 3.5ft 4s 22 27 mph 1014.8mb 49f 50f
5:00 4ft 4s 25 29 mph 1015mb 49f 50f
4:00 4.5ft 6s 25 29 mph 1014.7mb 50f 50f
3:00 4.5ft 5s 27 31 mph 1014.9mb 50f 50f
2:00 4.5ft 5s 29 36 mph 1015.2mb 51f 51f
1:00 4ft 5s 31 38 mph 1015.1mb 52f 51f
12:00 4.5ft 5s 29 34 mph 1016mb 53f 52f
Ter 05/23 11:00 4.5ft 4s 31 40 mph 1015.7mb 54f 53f
10:00  -   -  29
mph
- - -
9:00 5ft 5s 34 45 mph 1013.9mb 59f 57f
7:00 3.5ft 4s 31 40 mph 1012.4mb 63f 60f
6:00 2.5ft 4s 18 25 mph 1011.9mb 65f 65f
5:00 0.3ft 6s 18 22 mph 1011.6mb 66f 67f
4:00 0.3ft 6s 11 13 mph 1012.6mb 67f 66f
3:00 0.3ft 6s 2 4 mph 1013.3mb 67f 65f
2:00 0.3ft 3s 2 4 mph 1013.3mb 66f 64f
1:00 0.7ft 4s 4 7 mph 1013.4mb 64f 63f
12:00 0.7ft 6s 2 2 mph 1014.2mb 64f 62f
11:00 0.7ft 4s  -  0 mph 1015mb 64f 63f
10:00 0.3ft 2s 4 7 mph 1015.8mb 62f 60f
9:00 0.3ft 5s 9 11 mph 1016.2mb 61f 60f
8:00 0.3ft 3s 4 7 mph 1016mb 61f 60f
7:00 0.7ft 3s 2 2 mph 1016.1mb 61f 62f
6:00 1ft 3s 7 9 mph 1016mb 61f 61f
5:00 0.3ft 2s 4 7 mph 1016.2mb 61f 61f
4:00 0.3ft 3s 7 7 mph 1016.2mb 61f 61f
3:00 0.3ft 3s 4 4 mph 1016.3mb 62f 62f
2:00 0.3ft 6s 4 4 mph 1016.3mb 62f 62f
1:00 0.3ft 3s 4 7 mph 1016.4mb 61f 63f
12:00 0.3ft 3s 4 7 mph 1016.6mb 62f 63f
Seg 05/22 11:00 0.3ft 7s 2 4 mph 1016.6mb 63f 64f
10:00 0.3ft 3s 4 4 mph 1016.8mb 64f 64f
9:00 0.3ft 4s 7 9 mph 1017mb 63f 65f
8:00 0.3ft 4s 9 9 mph 1017.1mb 63f 66f
7:00 0.7ft 7s 4 7 mph 1017.5mb 64f 64f
6:00 0.3ft 6s 4 4 mph 1017.8mb 64f 65f
5:00 0.7ft 6s 4 7 mph 1018.5mb 63f 64f
4:00 0.3ft 2s 2 4 mph 1019.3mb 62f 63f
3:00 0.7ft 2s 7 9 mph 1020mb 62f 62f
2:00 0.7ft 2s 4 4 mph 1020.6mb 61f 61f
1:00 0.7ft 3s 9 9 mph 1021.5mb 60f 61f
12:00 0.7ft 2s 7 9 mph 1021.8mb 59f 60f
11:00 0.7ft 2s 9 13 mph 1022.4mb 59f 59f
10:00 0.3ft 2s 4 7 mph 1022.5mb 59f 59f
9:00 0.3ft 7s 7 9 mph 1023.2mb 58f 58f
8:00 0.3ft 4s 4 4 mph 1022.9mb 58f 59f
7:00 0.3ft 3s 7 7 mph 1022.8mb 58f 58f
6:00 0.3ft 3s 4 7 mph 1022.5mb 59f 59f
5:00 0.3ft 4s 4 4 mph 1022.6mb 58f 58f
4:00 0.3ft 2s 2 4 mph 1022.6mb 58f 59f
3:00 0.3ft 2s 9 9 mph 1022.3mb 58f 61f
2:00 0.3ft 2s 7 9 mph 1022.2mb 58f 62f
1:00 0.3ft 2s 9 11 mph 1022mb 58f 62f
12:00 0.7ft 2s 11 11 mph 1021.9mb 58f 61f
Dom 05/21 11:00 0.7ft 2s 11 13 mph 1021.9mb 58f 63f
10:00 1ft 2s 13 16 mph 1021.7mb 58f 62f
9:00 1ft 2s 16 18 mph 1021.6mb 58f 63f
8:00 1ft 3s 13 16 mph 1021.7mb 58f 62f
7:00 1.3ft 3s 13 16 mph 1022mb 58f 62f
6:00 1ft 3s 13 16 mph 1022.3mb 59f 61f
5:00 1.3ft 3s 13 16 mph 1022.8mb 59f 61f
4:00 1ft 2s 13 16 mph 1023.3mb 58f 60f
3:00 1ft 2s 13 16 mph 1023.9mb 58f 60f
2:00 0.7ft 2s 13 13 mph 1024.2mb 59f 60f
1:00 0.7ft 4s 9 11 mph 1024.5mb 59f 60f
12:00 0.3ft 4s 9 11 mph 1025.1mb 59f 59f
11:00 0.3ft 4s 9 9 mph 1025.3mb 58f 58f
10:00 0.3ft 3s 7 7 mph 1025.4mb 58f 58f
9:00 0.3ft 3s 4 4 mph 1025.4mb 59f 57f
8:00 0.3ft 4s 2 4 mph 1025.3mb 58f 58f
7:00 0.3ft 5s 4 7 mph 1025mb 57f 58f
6:00  -  4s 4 4 mph 1024.6mb 56f 59f
5:00 0.3ft 4s 4 7 mph 1024.7mb 56f 59f
4:00 0.3ft 3s 4 4 mph 1024.3mb 56f 59f
3:00 0.3ft 2s 7 7 mph 1023.9mb 56f 58f
2:00 0.3ft 2s 7 7 mph 1023.4mb 56f 60f
1:00 0.3ft 3s 2 2 mph 1022.8mb 56f 61f
12:00 0.3ft 2s 4 4 mph 1022.4mb 57f 61f
Sáb 05/20 11:00 0.7ft 2s 9 11 mph 1021.9mb 58f 60f
10:00 0.7ft 2s 13 16 mph 1021.4mb 58f 62f
9:00 1ft 6s 13 16 mph 1021.1mb 58f 63f
8:00 0.7ft 2s 13 16 mph 1020.9mb 58f 62f